• Join FlightAware (Why Join?)
  • Login
  • US Flag 
12:44AM EDT


 

Airport Tracker/Info


-or-


 

Live Flight TrackerFlight Track Log ✈ SWA407 ✈ 24-Apr-2013 ✈ KATL - KSFO

Flight Track Log - Related Links

Times and Time Zones

All times are in EDT time to prevent confusion due to time zone crossing. See the SWA407 flight status page for this flight to view local times or setup timezone preferences in your user account.

Time Position Orientation Groundspeed Altitude Reporting Facility
EDT Latitude Longitude Course Direction KTS MPH feet Rate Location/Type
05:22PM 33.6494 -84.4781 270° West 445 512 2,700  Level Atlanta Center
05:23PM 33.6617 -84.5431 283° West 337 388 4,800 2,520 Climbing Atlanta Center
05:24PM 33.6667 -84.5833 278° West 245 282 6,100 3,360 Climbing Atlanta TRACON
05:25PM 33.6833 -84.6500 287° West 248 285 9,000 2,700 Climbing Atlanta TRACON
05:26PM 33.7064 -84.7981 281° West 293 337 13,400 2,520 Climbing Atlanta Center
05:27PM 33.7203 -84.9128 278° West 305 351 16,000 2,460 Climbing Atlanta Center
05:28PM 33.8000 -84.6499 270° West  Level FlightAware Approximate
05:28PM 33.7361 -85.0156 281° West 315 362 18,400  Level Atlanta Center
05:29PM 33.7519 -85.1256 280° West 327 376 21,000 2,160 Climbing Atlanta Center
05:30PM 33.7697 -85.2383 281° West 340 391 22,800 1,380 Climbing Atlanta Center
05:31PM 33.7914 -85.3636 282° West 366 421 23,800 1,260 Climbing Atlanta Center
05:32PM 33.8128 -85.4889 282° West 392 451 25,400 1,680 Climbing Atlanta Center
05:33PM 33.8342 -85.6194 281° West 398 458 27,200 1,740 Climbing Atlanta Center
05:34PM 33.8722 -85.7500 289° West 398 458 28,900 1,500 Climbing Atlanta Center
05:35PM 33.9039 -85.8558 290° West 397 457 30,200 1,440 Climbing Atlanta Center
05:36PM 33.9458 -85.9819 292° West 397 457 31,800 900 Climbing Atlanta Center
05:37PM 33.9836 -86.1081 290° West 397 457 32,000 540 Climbing Atlanta Center
05:38PM 34.0189 -86.2342 289° West 397 457 32,900 1,200 Climbing Atlanta Center
05:39PM 34.0542 -86.3556 289° West 392 451 34,400 1,320 Climbing Atlanta Center
05:40PM 34.0894 -86.4769 289° West 387 445 35,600 780 Climbing Atlanta Center
05:41PM 34.1225 -86.6008 288° West 387 445 36,000 180 Climbing Atlanta Center
05:42PM 34.1575 -86.7222 289° West 387 445 36,000  Level Atlanta Center
05:45PM 34.2383 -87.0206 288° West 385 443 36,000  Level Memphis Center
05:46PM 34.2731 -87.1475 288° West 390 449 36,000  Level Memphis Center
05:47PM 34.3008 -87.2519 288° West 385 443 36,000  Level Memphis Center
05:48PM 34.3372 -87.3814 289° West 385 443 36,000  Level Memphis Center
05:49PM 34.3694 -87.5036 288° West 385 443 36,000  Level Memphis Center
05:50PM 34.4033 -87.6258 289° West 385 443 36,000  Level Memphis Center
05:51PM 34.4394 -87.7431 291° West 375 432 36,000  Level Memphis Center
05:52PM 34.4689 -87.8631 287° West 368 423 36,000  Level Memphis Center
05:53PM 34.5025 -87.9831 289° West 368 423 36,000  Level Memphis Center
05:54PM 34.5342 -88.1133 286° West 368 423 36,000  Level Memphis Center
05:55PM 34.5633 -88.2236 288° West 374 430 36,000  Level Memphis Center
05:56PM 34.5944 -88.3439 287° West 380 437 36,000  Level Memphis Center
05:57PM 34.6256 -88.4592 288° West 375 432 36,000  Level Memphis Center
05:58PM 34.6586 -88.5847 288° West 364 419 36,000  Level Memphis Center
05:59PM 34.6894 -88.7028 288° West 364 419 36,000  Level Memphis Center
06:00PM 34.7203 -88.8208 288° West 364 419 36,000  Level Memphis Center
06:01PM 34.7508 -88.9417 287° West 364 419 36,000  Level Memphis Center
06:02PM 34.7814 -89.0600 287° West 364 419 36,000  Level Memphis Center
06:03PM 34.8139 -89.1783 289° West 364 419 36,000  Level Memphis Center
06:04PM 34.8400 -89.2842 287° West 364 419 36,000  Level Memphis Center
06:05PM 34.8700 -89.4028 287° West 364 419 36,000  Level Memphis Center
06:06PM 34.9003 -89.5189 288° West 364 419 36,000  Level Memphis Center
06:07PM 34.9342 -89.6378 289° West 364 419 36,000  Level Memphis Center
06:08PM 34.9581 -89.7717 282° West 364 419 36,000  Level Memphis Center
06:09PM 34.9981 -89.8958 291° West 385 443 36,000  Level Memphis Center
06:10PM 35.0236 -90.0047 286° West 373 429 36,000  Level Memphis Center
06:11PM 35.0592 -90.1211 290° West 367 422 36,000  Level Memphis Center
06:12PM 35.0969 -90.2353 292° West 367 422 36,000  Level Memphis Center
06:13PM 35.1347 -90.3544 291° West 367 422 36,000  Level Memphis Center
06:14PM 35.1722 -90.4714 291° West 372 428 36,000  Level Memphis Center
06:15PM 35.2094 -90.5908 291° West 372 428 36,000  Level Memphis Center
06:16PM 35.2447 -90.7081 290° West 367 422 36,000  Level Memphis Center
06:17PM 35.2861 -90.8353 292° West 373 429 36,000  Level Memphis Center
06:18PM 35.3208 -90.9575 289° West 367 422 36,000  Level Memphis Center
06:19PM 35.3578 -91.0725 292° West 374 430 36,000  Level Memphis Center
06:20PM 35.3925 -91.1872 290° West 365 420 36,000  Level Memphis Center
06:21PM 35.4314 -91.3075 292° West 365 420 36,000  Level Memphis Center
06:22PM 35.4658 -91.4225 290° West 371 427 36,000  Level Memphis Center
06:23PM 35.4983 -91.5378 289° West 365 420 36,000  Level Memphis Center
06:24PM 35.5347 -91.6556 291° West 365 420 36,000  Level Memphis Center
06:25PM 35.5689 -91.7711 290° West 365 420 36,000  Level Memphis Center
06:26PM 35.6031 -91.8867 290° West 365 420 36,000  Level Memphis Center
06:27PM 35.6389 -92.0047 291° West 365 420 36,000  Level Memphis Center
06:28PM 35.6728 -92.1203 290° West 365 420 36,000  Level Memphis Center
06:29PM 35.7086 -92.2361 291° West 365 420 36,000  Level Memphis Center
06:30PM 35.7403 -92.3494 289° West 365 420 36,000  Level Memphis Center
06:31PM 35.7761 -92.4653 291° West 365 420 36,000  Level Memphis Center
06:32PM 35.8072 -92.5814 288° West 365 420 36,000  Level Memphis Center
06:33PM 35.8428 -92.6950 291° West 365 420 36,000  Level Memphis Center
06:34PM 35.8739 -92.8111 288° West 365 420 36,000  Level Memphis Center
06:35PM 35.9092 -92.9250 291° West 365 420 36,000  Level Memphis Center
06:36PM 35.9383 -93.0283 289° West 365 420 36,000  Level Memphis Center
06:37PM 35.9692 -93.1450 288° West 365 420 36,000  Level Memphis Center
06:38PM 36.0039 -93.2589 291° West 365 420 36,000  Level Memphis Center
06:39PM 36.0367 -93.3706 290° West 360 414 36,000  Level Memphis Center
06:40PM 36.0672 -93.4847 288° West 360 414 36,000  Level Memphis Center
06:41PM 36.0978 -93.5961 289° West 350 403 36,000  Level Memphis Center
06:42PM 36.1303 -93.7081 290° West 350 403 36,000  Level Memphis Center
06:43PM 36.1608 -93.8172 289° West 350 403 36,000  Level Memphis Center
06:44PM 36.1906 -93.9419 286° West 350 403 36,000  Level Memphis Center
06:45PM 36.2208 -94.0511 289° West 350 403 36,000  Level Memphis Center
06:47PM 36.3067 -94.3117 292° West 338 389 36,000  Level Kansas City Center
06:48PM 36.3417 -94.4192 292° West 336 387 36,000  Level Kansas City Center
06:49PM 36.3756 -94.5281 291° West 337 388 36,000  Level Kansas City Center
06:50PM 36.4092 -94.6358 291° West 335 386 36,000  Level Kansas City Center
06:51PM 36.4428 -94.7436 291° West 335 386 36,000  Level Kansas City Center
06:52PM 36.4836 -94.8725 292° West 334 384 36,000  Level Kansas City Center
06:53PM 36.5167 -94.9792 291° West 332 382 36,000  Level Kansas City Center
06:54PM 36.5506 -95.0853 292° West 332 382 36,000  Level Kansas City Center
06:55PM 36.5808 -95.1853 291° West 330 380 36,000  Level Kansas City Center
06:56PM 36.6158 -95.2969 291° West 331 381 36,000  Level Kansas City Center
06:57PM 36.6550 -95.4242 291° West 331 381 36,000  Level Kansas City Center
06:58PM 36.6872 -95.5300 291° West 330 380 36,000  Level Kansas City Center
07:00PM 36.7197 -95.6364 291° West 330 380 36,000  Level Kansas City Center
07:01PM 36.7528 -95.7444 291° West 333 383 36,000  Level Kansas City Center
07:02PM 36.7844 -95.8503 291° West 329 379 36,000  Level Kansas City Center
07:03PM 36.8172 -95.9603 290° West 334 384 36,000  Level Kansas City Center
07:04PM 36.8497 -96.0903 287° West 331 381 36,000  Level Kansas City Center
07:05PM 36.8742 -96.2008 285° West 333 383 36,000  Level Kansas City Center
07:06PM 36.8975 -96.3119 285° West 331 381 36,000  Level Kansas City Center
07:07PM 36.9194 -96.4211 284° West 327 376 36,000  Level Kansas City Center
07:08PM 36.9431 -96.5319 285° West 329 379 36,000  Level Kansas City Center
07:09PM 36.9672 -96.6428 285° West 330 380 36,000  Level Kansas City Center
07:10PM 36.9931 -96.7717 284° West 330 380 36,000  Level Kansas City Center
07:11PM 37.0161 -96.8833 285° West 331 381 36,000  Level Kansas City Center
07:12PM 37.0378 -96.9950 284° West 331 381 36,000  Level Kansas City Center
07:13PM 37.0619 -97.1053 285° West 330 380 36,000  Level Kansas City Center
07:14PM 37.0825 -97.2192 283° West 333 383 36,000  Level Kansas City Center
07:15PM 37.1053 -97.3314 284° West 332 382 36,000  Level Kansas City Center
07:16PM 37.1222 -97.4669 279° West 330 380 36,000  Level Kansas City Center
07:17PM 37.1369 -97.5800 279° West 330 380 36,000  Level Kansas City Center
07:18PM 37.1511 -97.6900 279° West 322 371 36,000  Level Kansas City Center
07:19PM 37.1658 -97.8003 280° West 320 368 36,000  Level Kansas City Center
07:20PM 37.1794 -97.9111 279° West 321 369 36,000  Level Kansas City Center
07:21PM 37.1931 -98.0200 279° West 318 366 36,000  Level Kansas City Center
07:22PM 37.2067 -98.1317 279° West 320 368 36,000  Level Kansas City Center
07:23PM 37.2239 -98.2639 279° West 320 368 36,000  Level Kansas City Center
07:24PM 37.2375 -98.3764 279° West 322 371 36,000  Level Kansas City Center
07:25PM 37.2503 -98.4886 278° West 324 373 36,000  Level Kansas City Center
07:26PM 37.2633 -98.5994 278° West 322 371 36,000  Level Kansas City Center
07:27PM 37.2775 -98.7111 279° West 322 371 36,000  Level Kansas City Center
07:28PM 37.2908 -98.8203 279° West 320 368 36,000  Level Kansas City Center
07:30PM 37.3031 -98.9303 278° West 318 366 36,000  Level Kansas City Center
07:31PM 37.3194 -99.0650 279° West 322 371 36,000  Level Kansas City Center
07:32PM 37.3319 -99.1764 278° West 323 372 36,000  Level Kansas City Center
07:33PM 37.3456 -99.2878 279° West 323 372 36,000  Level Kansas City Center
07:34PM 37.3581 -99.3986 278° West 321 369 36,000  Level Kansas City Center
07:35PM 37.3725 -99.5178 279° West 322 371 36,000  Level Kansas City Center
07:36PM 37.3833 -99.6250 277° West 323 372 36,000  Level Kansas City Center
07:37PM 37.3975 -99.7511 278° West 324 373 36,000  Level Kansas City Center
07:38PM 37.4100 -99.8567 279° West 322 371 36,000  Level Kansas City Center
07:39PM 37.4228 -99.9819 277° West 323 372 36,000  Level Kansas City Center
07:40PM 37.4342 -100.0900 278° West 324 373 36,000  Level Kansas City Center
07:41PM 37.4492 -100.2169 279° West 328 377 36,000  Level Kansas City Center
07:42PM 37.4600 -100.3244 277° West 325 374 36,000 240 Level Kansas City Center
07:43PM 37.4739 -100.4511 278° West 326 375 36,500 660 Climbing Kansas City Center
07:44PM 37.4850 -100.5581 277° West 323 372 37,400 720 Climbing Kansas City Center
07:45PM 37.4964 -100.6675 278° West 326 375 38,000 240 Climbing Kansas City Center
07:46PM 37.5086 -100.7972 277° West 331 381 38,000  Level Kansas City Center
07:47PM 37.5192 -100.9019 277° West 335 386 38,000  Level Kansas City Center
07:48PM 37.5311 -101.0189 277° West 336 387 38,000  Level Kansas City Center
07:49PM 37.5447 -101.1547 277° West 334 384 38,000  Level Kansas City Center
07:50PM 37.5553 -101.2667 277° West 335 386 38,000  Level Kansas City Center
07:51PM 37.5672 -101.3964 277° West 334 384 38,000  Level Kansas City Center
07:52PM 37.5786 -101.5064 277° West 332 382 38,000  Level Kansas City Center
07:53PM 37.5908 -101.6372 277° West 334 384 38,000  Level Kansas City Center
07:54PM 37.6011 -101.7478 277° West 333 383 38,000  Level Kansas City Center
07:55PM 37.6125 -101.8608 277° West 337 388 38,000  Level Kansas City Center
07:56PM 37.6244 -101.9931 277° West 339 390 38,000  Level Kansas City Center
07:57PM 37.6339 -102.0894 277° West 345 397 38,000  Level Denver Center
07:58PM 37.6458 -102.2219 277° West 341 392 38,000  Level Denver Center
07:59PM 37.6561 -102.3353 277° West 340 391 38,000  Level Denver Center
08:00PM 37.6678 -102.4639 277° West 333 383 38,000  Level Denver Center
08:01PM 37.6769 -102.5742 276° West 331 381 38,000  Level Denver Center
08:02PM 37.6894 -102.7031 277° West 331 381 38,000  Level Denver Center
08:03PM 37.6978 -102.8161 275° West 336 387 38,000  Level Denver Center
08:04PM 37.7086 -102.9444 276° West 331 381 38,000  Level Denver Center
08:05PM 37.7325 -103.0539 285° West 342 394 38,000  Level Denver Center
08:06PM 37.7767 -103.1708 296° West 348 400 38,000  Level Denver Center
08:07PM 37.8200 -103.2819 296° West 349 402 38,000  Level Denver Center
08:09PM 37.8525 -103.3767 294° West 350 403 38,000  Level Denver Center
08:10PM 37.8603 -103.5186 274° West 345 397 38,000  Level Denver Center
08:11PM 37.8708 -103.6397 276° West 343 395 38,000  Level Denver Center
08:12PM 37.8797 -103.7781 275° West 337 388 38,000  Level Denver Center
08:13PM 37.8875 -103.8986 275° West 338 389 38,000  Level Denver Center
08:14PM 37.8950 -104.0186 275° West 339 390 38,000  Level Denver Center
08:15PM 37.9039 -104.1375 275° West 337 388 38,000  Level Denver Center
08:16PM 37.9117 -104.2564 275° West 336 387 38,000  Level Denver Center
08:17PM 37.9183 -104.3758 274° West 336 387 38,000  Level Denver Center
08:18PM 37.9261 -104.4925 275° West 332 382 38,000  Level Denver Center
08:19PM 37.9333 -104.6078 275° West 326 375 38,000  Level Denver Center
08:20PM 37.9408 -104.7444 274° West 329 379 38,000  Level Denver Center
08:21PM 37.9472 -104.8597 274° West 327 376 38,000  Level Denver Center
08:22PM 37.9547 -104.9761 275° West 327 376 38,000  Level Denver Center
08:23PM 37.9617 -105.0939 274° West 330 380 38,000  Level Denver Center
08:24PM 37.9675 -105.2147 274° West 337 388 38,000  Level Denver Center
08:25PM 37.9761 -105.3525 275° West 334 384 38,000  Level Denver Center
08:26PM 37.9839 -105.4917 274° West 335 386 38,000  Level Denver Center
08:27PM 37.9900 -105.6128 274° West 338 389 38,000  Level Denver Center
08:28PM 37.9958 -105.7333 274° West 340 391 38,000  Level Denver Center
08:29PM 38.0014 -105.8531 273° West 338 389 38,000  Level Denver Center
08:30PM 38.0083 -105.9739 274° West 340 391 38,000  Level Denver Center
08:31PM 38.0136 -106.0947 273° West 339 390 38,000  Level Denver Center
08:32PM 38.0203 -106.2211 274° West 339 390 38,000  Level Denver Center
08:34PM 38.0261 -106.3350 274° West 338 389 38,000  Level Denver Center
08:35PM 38.0317 -106.4672 273° West 339 390 38,000  Level Denver Center
08:36PM 38.0369 -106.5836 273° West 335 386 38,000  Level Denver Center
08:37PM 38.0419 -106.7156 273° West 336 387 38,000  Level Denver Center
08:38PM 38.0475 -106.8300 274° West 340 391 38,000  Level Denver Center
08:39PM 38.0531 -106.9658 273° West 345 397 38,000  Level Denver Center
08:40PM 38.0578 -107.0803 273° West 341 392 38,000  Level Denver Center
08:41PM 38.0622 -107.2122 272° West 345 397 38,000  Level Denver Center
08:42PM 38.0669 -107.3281 273° West 343 395 38,000  Level Denver Center
08:43PM 38.0725 -107.4642 273° West 347 399 38,000  Level Denver Center
08:44PM 38.0764 -107.5814 272° West 347 399 38,000  Level Denver Center
08:45PM 38.0803 -107.7033 272° West 347 399 38,000  Level Denver Center
08:46PM 38.0853 -107.8403 273° West 347 399 38,000  Level Denver Center
08:47PM 38.0897 -107.9600 273° West 352 405 38,000  Level Denver Center
08:48PM 38.0942 -108.0983 272° West 352 405 38,000  Level Denver Center
08:49PM 38.0978 -108.2181 272° West 353 406 38,000  Level Denver Center
08:50PM 38.1014 -108.3364 272° West 351 404 38,000  Level Denver Center
08:51PM 38.1053 -108.4767 272° West 354 407 38,000  Level Denver Center
08:52PM 38.1089 -108.5992 272° West 360 414 38,000  Level Denver Center
08:53PM 38.1131 -108.7411 272° West 360 414 38,000  Level Denver Center
08:54PM 38.1153 -108.8586 271° West 352 405 38,000  Level Denver Center
08:56PM 38.1200 -109.0197 272° West 357 411 38,000  Level Denver Center
08:57PM 38.1233 -109.1836 272° West 362 417 38,000  Level Denver Center
08:58PM 38.1258 -109.3031 272° West 357 411 38,000  Level Denver Center
08:59PM 38.1286 -109.4256 272° West 362 417 38,000  Level Denver Center
09:00PM 38.1317 -109.5683 272° West 361 415 38,000  Level Denver Center
09:01PM 38.1333 -109.6914 271° West 363 418 38,000  Level Denver Center
09:02PM 38.1364 -109.8333 272° West 362 417 38,000  Level Denver Center
09:03PM 38.1389 -109.9533 272° West 357 411 38,000  Level Denver Center
09:04PM 38.1400 -110.0925 271° West 354 407 38,000  Level Denver Center
09:05PM 38.1422 -110.2139 271° West 358 412 38,000  Level Denver Center
09:06PM 38.1439 -110.3361 271° West 360 414 38,000  Level Denver Center
09:07PM 38.1458 -110.4786 271° West 361 415 38,000  Level Denver Center
09:08PM 38.1469 -110.6022 271° West 364 419 38,000  Level Denver Center
09:09PM 38.1483 -110.7478 271° West 369 425 38,000  Level Denver Center
09:10PM 38.1481 -110.8736 270° West 371 427 38,000  Level Denver Center
09:11PM 38.1550 -111.0281 273° West 372 428 38,000  Level Salt Lake Center
09:12PM 38.1628 -111.1589 274° West 372 428 38,000  Level Salt Lake Center
09:13PM 38.1706 -111.2903 274° West 374 430 38,000  Level Salt Lake Center
09:14PM 38.1775 -111.4228 274° West 376 433 38,000  Level Salt Lake Center
09:15PM 38.1847 -111.5556 274° West 377 434 38,000  Level Salt Lake Center
09:16PM 38.1931 -111.7175 274° West 383 441 38,000  Level Salt Lake Center
09:17PM 38.1989 -111.8508 273° West 381 438 38,000  Level Salt Lake Center
09:18PM 38.2053 -111.9856 273° West 382 440 38,000  Level Salt Lake Center
09:19PM 38.2122 -112.1203 274° West 383 441 38,000  Level Salt Lake Center
09:20PM 38.2175 -112.2525 273° West 378 435 38,000  Level Salt Lake Center
09:21PM 38.2242 -112.3861 274° West 379 436 38,000  Level Salt Lake Center
09:22PM 38.2300 -112.5172 273° West 375 432 38,000  Level Salt Lake Center
09:23PM 38.2369 -112.6747 273° West 374 430 38,000  Level Salt Lake Center
09:24PM 38.2411 -112.8061 272° West 374 430 38,000  Level Salt Lake Center
09:25PM 38.2475 -112.9378 274° West 376 433 38,000  Level Salt Lake Center
09:27PM 38.2525 -113.0708 273° West 378 435 38,000  Level Salt Lake Center
09:28PM 38.2581 -113.2036 273° West 379 436 38,000  Level Salt Lake Center
09:30PM 38.2675 -113.4733 273° West 384 442 38,000  Level Salt Lake Center
09:31PM 38.2736 -113.6383 273° West 391 450 38,000  Level Salt Lake Center
09:32PM 38.2775 -113.7756 272° West 390 449 38,000  Level Salt Lake Center
09:33PM 38.2819 -113.9089 272° West 382 440 38,000 -120 Level Salt Lake Center
09:34PM 38.2867 -114.0450 273° West 385 443 37,800 -600 Descending Salt Lake Center
09:35PM 38.2908 -114.1825 272° West 388 447 36,800 -960 Descending Salt Lake Center
09:36PM 38.2939 -114.3211 272° West 393 452 35,900 -960 Descending Salt Lake Center
09:37PM 38.2975 -114.4583 272° West 390 449 34,900 -960 Descending Salt Lake Center
09:38PM 38.3008 -114.6278 271° West 401 461 34,000 -480 Descending Salt Lake Center
09:39PM 38.3050 -114.7700 272° West 404 465 34,000  Level Salt Lake Center
09:40PM 38.3078 -114.9094 271° West 396 456 34,000  Level Salt Lake Center
09:41PM 38.3122 -115.0475 272° West 392 451 34,000  Level Salt Lake Center
09:42PM 38.3139 -115.1864 271° West 394 453 34,000  Level Salt Lake Center
09:43PM 38.3178 -115.3367 272° West 394 453 34,000  Level Salt Lake Center
09:44PM 38.3194 -115.4589 271° West 395 455 34,000  Level Salt Lake Center
09:45PM 38.3231 -115.6269 272° West 395 455 34,000  Level Salt Lake Center
09:46PM 38.3244 -115.7669 271° West 396 456 34,000  Level Salt Lake Center
09:47PM 38.3267 -115.9075 271° West 397 457 34,000  Level Salt Lake Center
09:48PM 38.3292 -116.0500 271° West 402 463 34,000  Level Salt Lake Center
09:49PM 38.3294 -116.1914 270° West 401 461 34,000  Level Salt Lake Center
09:50PM 38.3308 -116.3325 271° West 399 459 34,000  Level Salt Lake Center
09:51PM 38.3019 -116.4678 255° West 395 455 34,000  Level Salt Lake Center
09:52PM 38.2717 -116.6042 254° West 398 458 34,000  Level Salt Lake Center
09:53PM 38.2358 -116.7667 254° West 398 458 34,000  Level Oakland Center
09:54PM 38.2139 -116.9067 259° West 404 465 34,000  Level Oakland Center
09:55PM 38.1964 -117.0481 261° West 407 468 34,000  Level Oakland Center
09:56PM 38.1758 -117.2064 261° West 405 466 34,000  Level Oakland Center
09:57PM 38.1572 -117.3506 261° West 410 472 34,000  Level Oakland Center
09:58PM 38.1397 -117.4875 261° West 403 464 34,000  Level Oakland Center
09:59PM 38.1206 -117.6278 260° West 402 463 34,000  Level Oakland Center
10:00PM 38.1019 -117.7689 261° West 405 466 34,000  Level Oakland Center
10:01PM 38.0825 -117.9092 260° West 404 465 34,000  Level Oakland Center
10:02PM 38.0628 -118.0500 260° West 404 465 34,000  Level Oakland Center
10:03PM 38.0439 -118.1911 260° West 405 466 34,000  Level Oakland Center
10:04PM 38.0233 -118.3322 260° West 406 467 34,000  Level Oakland Center
10:05PM 37.9997 -118.5036 260° West 410 472 34,000  Level Oakland Center
10:07PM 37.9792 -118.6453 260° West 410 472 34,000  Level Oakland Center
10:08PM 37.9594 -118.7867 260° West 408 470 34,000  Level Oakland Center
10:09PM 37.9411 -118.9297 261° West 410 472 34,000  Level Oakland Center
10:10PM 37.9197 -119.0717 259° West 410 472 34,000  Level Oakland Center
10:11PM 37.8964 -119.2244 259° West 412 474 34,000  Level Oakland Center
10:12PM 37.8761 -119.3664 260° West 410 472 34,000  Level Oakland Center
10:13PM 37.8533 -119.5100 259° West 415 478 34,000  Level Oakland Center
10:14PM 37.8325 -119.6508 259° West 410 472 34,000  Level Oakland Center
10:15PM 37.8108 -119.7942 259° West 414 476 34,000 -120 Level Oakland Center
10:16PM 37.7894 -119.9364 259° West 413 475 33,800 -1,080 Descending Oakland Center
10:17PM 37.7683 -120.0747 259° West 404 465 31,900 -1,920 Descending Oakland Center
10:18PM 37.7467 -120.2092 259° West 394 453 30,000 -1,920 Descending Oakland Center
10:19PM 37.7256 -120.3400 259° West 383 441 28,100 -1,860 Descending Oakland Center
10:20PM 37.7058 -120.4706 259° West 380 437 26,300 -1,800 Descending Oakland Center
10:21PM 37.6856 -120.5978 259° West 373 429 24,500 -1,920 Descending Oakland Center
10:22PM 37.6658 -120.7228 259° West 364 419 22,500 -2,220 Descending Oakland Center
10:22PM 37.6500 -120.8167 258° West 361 415 21,000 -2,160 Descending Northern Cal TRACON
10:23PM 37.6333 -120.9333 260° West 363 418 19,100 -1,740 Descending Northern Cal TRACON
10:24PM 37.6167 -121.0500 260° West 357 411 17,600 -1,560 Descending Northern Cal TRACON
10:25PM 37.6000 -121.1667 260° West 343 395 16,200 -1,800 Descending Northern Cal TRACON
10:26PM 37.5833 -121.2833 260° West 335 386 14,200 -1,860 Descending Northern Cal TRACON
10:27PM 37.5833 -121.4000 270° West 324 373 12,500 -1,440 Descending Northern Cal TRACON
10:28PM 37.5667 -121.5167 260° West 311 358 11,300 -720 Descending Northern Cal TRACON
10:29PM 37.5500 -121.6167 258° West 312 359 11,000 -900 Descending Northern Cal TRACON
10:30PM 37.5333 -121.7167 258° West 305 351 9,600 -1,560 Descending Northern Cal TRACON
10:31PM 37.5000 -121.8167 247° West 293 337 8,100 -1,020 Descending Northern Cal TRACON
10:32PM 37.4833 -121.9000 256° West 256 295 7,500 -900 Descending Northern Cal TRACON
10:33PM 37.5000 -121.9833 284° West 245 282 6,300 -1,320 Descending Northern Cal TRACON
10:34PM 37.5333 -122.0667 297° West 237 273 5,100 -1,140 Descending Northern Cal TRACON
10:35PM 37.5333 -122.1500 270° West 213 245 4,000 -900 Descending Northern Cal TRACON
10:36PM 37.5408 -122.1739 292° West 213 245 3,600 -1,140 Descending Oakland Center
10:37PM 37.5583 -122.2353 290° West 199 229 2,200 -1,200 Descending Oakland Center
10:38PM 37.5822 -122.2906 299° West 189 217 1,200 -900 Descending Oakland Center
10:39PM 37.6006 -122.3350 298° West 165 190 400 -600 Descending Oakland Center
10:40PM 37.6206 -122.3839 297° West 155 178 100 -300 Descending Oakland Center
10:42PM 37.6167 -122.3667 90° East  Level FlightAware Approximate
10:49PM 37.6191 -122.3752 90° East  Level Estimated